Airfield :
LOGIN :

Register | Disclaimer

   EN    FR    IT 

 










Legend :    VFR   Marginal VFR   IFR   Intensive IFR   Very Intensive IFR
Visi :
Ceiling :
>= 8 km
>= 3000ft
5 to 8 km
1000 to 3000 ft
1500m to 5 km
500 to 1000 ft
800 to 1500m
200 to 500 ft
< 800m
< 200 ft
Symbols :   Thunderstorms  Fog  Heavy snow  Heavy precipitations  Wind > 20 kt
SIGMETs :     Misc.  Thunderstorms  Icing  Turbulence  Mountain Waves  Volcanic Ashes







- Airport Elevation : 274 ft
- IATA code : PUY


LDPL - Pula

CURRENT METAR :
  • 220030Z AUTO 10006KT 9999 -SHRA NSC 23/16 Q1012

EXPIRED METARs :
  • 220000Z AUTO VRB02KT CAVOK 23/16 Q1012
  • 212330Z AUTO VRB03KT 9999 -RA FEW055/// 23/16 Q1012
  • 212300Z AUTO 10004KT CAVOK 24/15 Q1012
  • 212230Z AUTO 09006KT CAVOK 22/15 Q1012
  • 212200Z 08003KT 340V100 9999 FEW040 23/15 Q1012 TEMPO SHRA FEW040TCU

TAF TAF LDPL
Valid from the 22 at 00:00 until the 23 at 00:00 UTC


212325Z 2200/2224 11006KT 9999 SCT040 TX32/2212Z TN20/2203Z
TEMPO 2200/2206 11012KT SHRA FEW040TCU SCT045
PROB30
TEMPO 2200/2206 TSRA FEW040CB SCT045
BECMG 2211/2213 24008KT
BECMG 2217/2219 VRB02KT
No reported NOTAMs for that airfield.
2 SIGMETs reported for the Zagreb FIR (LDZO) :
 
Embedded thunderstorms
LDZO SIGMET 1 VALID 220015/220200 LDZA
LDZO ZAGREB FIR EMBD TS FCST W OF E01500 TOP FL360 STNR INTSF=
Embedded thunderstorms
LDZO SIGMET 1 VALID 212245/220015 LDZA
LDZO ZAGREB FIR EMBD TS OBS W OF E01500 TOP FL360 STNR INTSF=



MET'MAP, your aeronautical weather chart ! - Copyright ORBIFLY December 2007 - Disclaimer

ORBIFLY MET'MAP TEAM :

Programming & Development : Alexandra Zaïnal
Concept & Development : Baudouin d'Aumeries
Co-Development & Prog : Marc-Olivier Méhu
Technical & hardware support : Manuel Goepfert

Contact : metmap@orbifly.com




SOURCES & CREDITS :

   NOAA